sensor_id;sensor_type;location;lat;lon;timestamp;P1;durP1;ratioP1;P2;durP2;ratioP2
6255;SDS011;3161;48.794;9.784;2022-09-06T00:00:44;5.53;;;3.60;;
6255;SDS011;3161;48.794;9.784;2022-09-06T00:03:11;5.23;;;3.60;;
6255;SDS011;3161;48.794;9.784;2022-09-06T00:05:39;6.00;;;3.77;;
6255;SDS011;3161;48.794;9.784;2022-09-06T00:08:08;6.67;;;4.20;;
6255;SDS011;3161;48.794;9.784;2022-09-06T00:10:36;9.67;;;4.27;;
6255;SDS011;3161;48.794;9.784;2022-09-06T00:13:04;9.03;;;3.80;;
6255;SDS011;3161;48.794;9.784;2022-09-06T00:15:34;5.77;;;4.10;;
6255;SDS011;3161;48.794;9.784;2022-09-06T00:18:03;4.93;;;3.70;;
6255;SDS011;3161;48.794;9.784;2022-09-06T00:20:32;6.63;;;5.17;;
6255;SDS011;3161;48.794;9.784;2022-09-06T00:23:02;7.70;;;4.70;;
6255;SDS011;3161;48.794;9.784;2022-09-06T00:25:31;8.30;;;5.27;;
6255;SDS011;3161;48.794;9.784;2022-09-06T00:28:01;6.70;;;4.20;;
6255;SDS011;3161;48.794;9.784;2022-09-06T00:30:30;7.33;;;4.90;;
6255;SDS011;3161;48.794;9.784;2022-09-06T00:32:59;7.27;;;4.20;;
6255;SDS011;3161;48.794;9.784;2022-09-06T00:35:26;8.23;;;3.60;;
6255;SDS011;3161;48.794;9.784;2022-09-06T00:37:55;6.60;;;4.00;;
6255;SDS011;3161;48.794;9.784;2022-09-06T00:40:24;5.33;;;3.63;;
6255;SDS011;3161;48.794;9.784;2022-09-06T00:42:55;4.80;;;3.73;;
6255;SDS011;3161;48.794;9.784;2022-09-06T00:45:23;10.10;;;3.73;;
6255;SDS011;3161;48.794;9.784;2022-09-06T00:47:53;9.97;;;3.60;;
6255;SDS011;3161;48.794;9.784;2022-09-06T00:50:22;4.67;;;3.30;;
6255;SDS011;3161;48.794;9.784;2022-09-06T00:52:49;5.80;;;3.47;;
6255;SDS011;3161;48.794;9.784;2022-09-06T00:55:18;4.50;;;3.43;;
6255;SDS011;3161;48.794;9.784;2022-09-06T00:57:47;4.07;;;3.47;;
6255;SDS011;3161;48.794;9.784;2022-09-06T01:00:17;5.53;;;3.40;;
6255;SDS011;3161;48.794;9.784;2022-09-06T01:02:46;7.80;;;3.90;;
6255;SDS011;3161;48.794;9.784;2022-09-06T01:05:14;6.13;;;3.93;;
6255;SDS011;3161;48.794;9.784;2022-09-06T01:07:46;6.07;;;4.07;;
6255;SDS011;3161;48.794;9.784;2022-09-06T01:10:44;7.80;;;3.93;;
6255;SDS011;3161;48.794;9.784;2022-09-06T01:21:21;5.00;;;3.57;;
6255;SDS011;3161;48.794;9.784;2022-09-06T01:26:50;3.77;;;3.37;;
6255;SDS011;3161;48.794;9.784;2022-09-06T01:29:44;5.77;;;3.07;;
6255;SDS011;3161;48.794;9.784;2022-09-06T01:37:47;11.47;;;3.93;;
6255;SDS011;3161;48.794;9.784;2022-09-06T01:40:15;8.43;;;3.27;;
6255;SDS011;3161;48.794;9.784;2022-09-06T01:42:43;7.47;;;4.23;;
6255;SDS011;3161;48.794;9.784;2022-09-06T01:45:14;6.37;;;3.63;;
6255;SDS011;3161;48.794;9.784;2022-09-06T02:04:17;8.20;;;4.13;;
6255;SDS011;3161;48.794;9.784;2022-09-06T02:06:49;5.17;;;3.73;;
6255;SDS011;3161;48.794;9.784;2022-09-06T02:09:22;8.93;;;4.10;;
6255;SDS011;3161;48.794;9.784;2022-09-06T02:11:53;10.70;;;4.27;;
6255;SDS011;3161;48.794;9.784;2022-09-06T02:14:39;10.03;;;4.03;;
6255;SDS011;3161;48.794;9.784;2022-09-06T02:17:08;6.27;;;4.30;;
6255;SDS011;3161;48.794;9.784;2022-09-06T02:19:44;5.70;;;3.97;;
6255;SDS011;3161;48.794;9.784;2022-09-06T02:22:10;7.57;;;3.87;;
6255;SDS011;3161;48.794;9.784;2022-09-06T02:24:40;6.83;;;3.27;;
6255;SDS011;3161;48.794;9.784;2022-09-06T02:27:10;5.47;;;3.70;;
6255;SDS011;3161;48.794;9.784;2022-09-06T02:29:39;5.37;;;4.10;;
6255;SDS011;3161;48.794;9.784;2022-09-06T02:32:11;8.23;;;4.13;;
6255;SDS011;3161;48.794;9.784;2022-09-06T02:34:53;5.63;;;3.97;;
6255;SDS011;3161;48.794;9.784;2022-09-06T02:37:17;4.10;;;3.60;;
6255;SDS011;3161;48.794;9.784;2022-09-06T02:39:45;6.93;;;3.60;;
6255;SDS011;3161;48.794;9.784;2022-09-06T02:42:13;6.77;;;3.63;;
6255;SDS011;3161;48.794;9.784;2022-09-06T02:44:42;4.57;;;3.50;;
6255;SDS011;3161;48.794;9.784;2022-09-06T02:47:09;8.30;;;3.37;;
6255;SDS011;3161;48.794;9.784;2022-09-06T02:49:37;7.23;;;3.97;;
6255;SDS011;3161;48.794;9.784;2022-09-06T02:52:04;8.00;;;3.60;;
6255;SDS011;3161;48.794;9.784;2022-09-06T02:54:32;3.97;;;3.57;;
6255;SDS011;3161;48.794;9.784;2022-09-06T02:56:59;12.23;;;3.67;;
6255;SDS011;3161;48.794;9.784;2022-09-06T02:59:27;9.40;;;4.30;;
6255;SDS011;3161;48.794;9.784;2022-09-06T03:01:54;10.40;;;3.73;;
6255;SDS011;3161;48.794;9.784;2022-09-06T03:04:22;7.33;;;3.90;;
6255;SDS011;3161;48.794;9.784;2022-09-06T03:06:50;4.20;;;3.80;;
6255;SDS011;3161;48.794;9.784;2022-09-06T03:09:17;3.30;;;2.97;;
6255;SDS011;3161;48.794;9.784;2022-09-06T03:11:45;4.50;;;3.47;;
6255;SDS011;3161;48.794;9.784;2022-09-06T03:14:12;4.73;;;3.00;;
6255;SDS011;3161;48.794;9.784;2022-09-06T03:16:41;12.83;;;3.17;;
6255;SDS011;3161;48.794;9.784;2022-09-06T03:19:09;4.90;;;3.07;;
6255;SDS011;3161;48.794;9.784;2022-09-06T03:21:37;14.37;;;3.43;;
6255;SDS011;3161;48.794;9.784;2022-09-06T03:24:05;3.30;;;3.00;;
6255;SDS011;3161;48.794;9.784;2022-09-06T03:26:32;8.73;;;3.00;;
6255;SDS011;3161;48.794;9.784;2022-09-06T03:29:00;8.20;;;3.40;;
6255;SDS011;3161;48.794;9.784;2022-09-06T03:31:27;5.00;;;3.10;;
6255;SDS011;3161;48.794;9.784;2022-09-06T03:33:55;3.43;;;3.00;;
6255;SDS011;3161;48.794;9.784;2022-09-06T03:36:22;4.57;;;3.10;;
6255;SDS011;3161;48.794;9.784;2022-09-06T03:38:50;3.53;;;3.23;;
6255;SDS011;3161;48.794;9.784;2022-09-06T03:41:18;6.70;;;3.27;;
6255;SDS011;3161;48.794;9.784;2022-09-06T03:43:46;3.53;;;2.80;;
6255;SDS011;3161;48.794;9.784;2022-09-06T03:46:14;5.37;;;3.30;;
6255;SDS011;3161;48.794;9.784;2022-09-06T03:48:41;4.93;;;3.00;;
6255;SDS011;3161;48.794;9.784;2022-09-06T03:51:09;6.20;;;3.33;;
6255;SDS011;3161;48.794;9.784;2022-09-06T03:53:37;5.67;;;2.93;;
6255;SDS011;3161;48.794;9.784;2022-09-06T03:56:04;5.33;;;3.90;;
6255;SDS011;3161;48.794;9.784;2022-09-06T03:58:32;10.30;;;3.27;;
6255;SDS011;3161;48.794;9.784;2022-09-06T04:01:05;4.77;;;3.10;;
6255;SDS011;3161;48.794;9.784;2022-09-06T04:03:36;6.30;;;3.13;;
6255;SDS011;3161;48.794;9.784;2022-09-06T04:06:05;3.53;;;3.23;;
6255;SDS011;3161;48.794;9.784;2022-09-06T04:08:34;4.17;;;2.97;;
6255;SDS011;3161;48.794;9.784;2022-09-06T04:11:02;5.47;;;3.27;;
6255;SDS011;3161;48.794;9.784;2022-09-06T04:16:16;4.17;;;3.20;;
6255;SDS011;3161;48.794;9.784;2022-09-06T04:18:44;3.97;;;3.20;;
6255;SDS011;3161;48.794;9.784;2022-09-06T04:21:11;5.03;;;3.13;;
6255;SDS011;3161;48.794;9.784;2022-09-06T04:23:39;4.40;;;3.40;;
6255;SDS011;3161;48.794;9.784;2022-09-06T04:26:06;7.23;;;3.50;;
6255;SDS011;3161;48.794;9.784;2022-09-06T04:28:34;5.17;;;3.03;;
6255;SDS011;3161;48.794;9.784;2022-09-06T04:31:02;4.03;;;3.30;;
6255;SDS011;3161;48.794;9.784;2022-09-06T04:33:31;3.60;;;3.27;;
6255;SDS011;3161;48.794;9.784;2022-09-06T04:36:01;4.87;;;3.30;;
6255;SDS011;3161;48.794;9.784;2022-09-06T04:38:33;5.20;;;3.43;;
6255;SDS011;3161;48.794;9.784;2022-09-06T04:41:03;4.20;;;3.63;;
6255;SDS011;3161;48.794;9.784;2022-09-06T04:43:31;3.43;;;3.13;;
6255;SDS011;3161;48.794;9.784;2022-09-06T04:46:10;6.33;;;3.10;;
6255;SDS011;3161;48.794;9.784;2022-09-06T04:48:38;4.03;;;3.13;;
6255;SDS011;3161;48.794;9.784;2022-09-06T04:51:06;6.17;;;3.20;;
6255;SDS011;3161;48.794;9.784;2022-09-06T04:53:33;4.23;;;2.97;;
6255;SDS011;3161;48.794;9.784;2022-09-06T04:56:01;4.87;;;3.40;;
6255;SDS011;3161;48.794;9.784;2022-09-06T04:58:29;5.23;;;3.60;;
6255;SDS011;3161;48.794;9.784;2022-09-06T05:00:56;5.17;;;3.20;;
6255;SDS011;3161;48.794;9.784;2022-09-06T05:03:24;5.20;;;3.17;;
6255;SDS011;3161;48.794;9.784;2022-09-06T05:05:51;7.07;;;3.07;;
6255;SDS011;3161;48.794;9.784;2022-09-06T05:08:20;4.67;;;3.23;;
6255;SDS011;3161;48.794;9.784;2022-09-06T05:10:50;4.40;;;3.47;;
6255;SDS011;3161;48.794;9.784;2022-09-06T05:13:17;4.60;;;3.60;;
6255;SDS011;3161;48.794;9.784;2022-09-06T05:15:44;5.90;;;3.53;;
6255;SDS011;3161;48.794;9.784;2022-09-06T05:18:12;9.07;;;3.43;;
6255;SDS011;3161;48.794;9.784;2022-09-06T05:20:40;4.53;;;3.53;;
6255;SDS011;3161;48.794;9.784;2022-09-06T05:23:07;4.17;;;3.27;;
6255;SDS011;3161;48.794;9.784;2022-09-06T05:25:35;3.83;;;3.30;;
6255;SDS011;3161;48.794;9.784;2022-09-06T05:28:02;7.57;;;3.27;;
6255;SDS011;3161;48.794;9.784;2022-09-06T05:30:30;5.50;;;3.60;;
6255;SDS011;3161;48.794;9.784;2022-09-06T05:32:57;4.10;;;3.43;;
6255;SDS011;3161;48.794;9.784;2022-09-06T05:35:25;8.63;;;3.57;;
6255;SDS011;3161;48.794;9.784;2022-09-06T05:37:53;6.63;;;4.03;;
6255;SDS011;3161;48.794;9.784;2022-09-06T05:40:20;5.90;;;3.63;;
6255;SDS011;3161;48.794;9.784;2022-09-06T05:42:48;7.57;;;4.30;;
6255;SDS011;3161;48.794;9.784;2022-09-06T05:45:15;9.10;;;4.30;;
6255;SDS011;3161;48.794;9.784;2022-09-06T05:47:43;6.00;;;3.80;;
6255;SDS011;3161;48.794;9.784;2022-09-06T05:50:10;7.67;;;3.80;;
6255;SDS011;3161;48.794;9.784;2022-09-06T05:52:38;8.23;;;4.30;;
6255;SDS011;3161;48.794;9.784;2022-09-06T05:55:06;8.90;;;3.93;;
6255;SDS011;3161;48.794;9.784;2022-09-06T05:57:34;8.87;;;4.10;;
6255;SDS011;3161;48.794;9.784;2022-09-06T06:00:02;4.77;;;4.30;;
6255;SDS011;3161;48.794;9.784;2022-09-06T06:02:31;4.80;;;4.07;;
6255;SDS011;3161;48.794;9.784;2022-09-06T06:04:59;8.07;;;4.63;;
6255;SDS011;3161;48.794;9.784;2022-09-06T06:07:27;15.30;;;4.37;;
6255;SDS011;3161;48.794;9.784;2022-09-06T06:09:54;5.83;;;4.57;;
6255;SDS011;3161;48.794;9.784;2022-09-06T06:12:22;10.33;;;4.47;;
6255;SDS011;3161;48.794;9.784;2022-09-06T06:14:49;8.03;;;4.20;;
6255;SDS011;3161;48.794;9.784;2022-09-06T06:17:17;8.53;;;4.87;;
6255;SDS011;3161;48.794;9.784;2022-09-06T06:19:44;7.73;;;5.43;;
6255;SDS011;3161;48.794;9.784;2022-09-06T06:22:12;7.87;;;3.93;;
6255;SDS011;3161;48.794;9.784;2022-09-06T06:24:40;4.97;;;4.20;;
6255;SDS011;3161;48.794;9.784;2022-09-06T06:27:07;9.13;;;5.30;;
6255;SDS011;3161;48.794;9.784;2022-09-06T06:29:35;8.13;;;4.70;;
6255;SDS011;3161;48.794;9.784;2022-09-06T06:32:02;6.03;;;4.40;;
6255;SDS011;3161;48.794;9.784;2022-09-06T06:34:30;10.27;;;3.60;;
6255;SDS011;3161;48.794;9.784;2022-09-06T06:36:57;9.90;;;4.43;;
6255;SDS011;3161;48.794;9.784;2022-09-06T06:39:25;6.20;;;3.53;;
6255;SDS011;3161;48.794;9.784;2022-09-06T06:41:52;6.60;;;3.43;;
6255;SDS011;3161;48.794;9.784;2022-09-06T06:44:20;6.57;;;4.20;;
6255;SDS011;3161;48.794;9.784;2022-09-06T06:46:48;6.97;;;4.10;;
6255;SDS011;3161;48.794;9.784;2022-09-06T06:49:15;7.23;;;4.00;;
6255;SDS011;3161;48.794;9.784;2022-09-06T06:51:43;6.77;;;4.13;;
6255;SDS011;3161;48.794;9.784;2022-09-06T06:54:11;7.53;;;4.00;;
6255;SDS011;3161;48.794;9.784;2022-09-06T06:56:45;8.37;;;4.47;;
6255;SDS011;3161;48.794;9.784;2022-09-06T06:59:12;4.73;;;3.73;;
6255;SDS011;3161;48.794;9.784;2022-09-06T07:01:40;7.73;;;4.00;;
6255;SDS011;3161;48.794;9.784;2022-09-06T07:04:07;7.23;;;4.27;;
6255;SDS011;3161;48.794;9.784;2022-09-06T07:06:46;5.10;;;4.53;;
6255;SDS011;3161;48.794;9.784;2022-09-06T07:09:16;4.20;;;3.50;;
6255;SDS011;3161;48.794;9.784;2022-09-06T07:11:44;8.97;;;4.40;;
6255;SDS011;3161;48.794;9.784;2022-09-06T07:14:15;6.83;;;3.73;;
6255;SDS011;3161;48.794;9.784;2022-09-06T07:16:43;7.17;;;4.23;;
6255;SDS011;3161;48.794;9.784;2022-09-06T07:19:11;5.67;;;3.90;;
6255;SDS011;3161;48.794;9.784;2022-09-06T07:21:38;4.63;;;4.00;;
6255;SDS011;3161;48.794;9.784;2022-09-06T07:24:07;9.57;;;4.63;;
6255;SDS011;3161;48.794;9.784;2022-09-06T07:26:34;8.97;;;4.40;;
6255;SDS011;3161;48.794;9.784;2022-09-06T07:29:03;5.30;;;3.90;;
6255;SDS011;3161;48.794;9.784;2022-09-06T07:31:32;10.77;;;3.23;;
6255;SDS011;3161;48.794;9.784;2022-09-06T07:34:00;9.80;;;3.63;;
6255;SDS011;3161;48.794;9.784;2022-09-06T07:36:29;4.70;;;3.40;;
6255;SDS011;3161;48.794;9.784;2022-09-06T07:38:57;6.43;;;3.47;;
6255;SDS011;3161;48.794;9.784;2022-09-06T07:41:25;7.50;;;3.37;;
6255;SDS011;3161;48.794;9.784;2022-09-06T07:43:53;11.33;;;3.77;;
6255;SDS011;3161;48.794;9.784;2022-09-06T07:46:20;7.90;;;3.43;;
6255;SDS011;3161;48.794;9.784;2022-09-06T07:48:48;5.43;;;3.00;;
6255;SDS011;3161;48.794;9.784;2022-09-06T07:51:17;4.93;;;2.27;;
6255;SDS011;3161;48.794;9.784;2022-09-06T07:53:50;4.20;;;2.70;;
6255;SDS011;3161;48.794;9.784;2022-09-06T07:56:20;5.43;;;2.50;;
6255;SDS011;3161;48.794;9.784;2022-09-06T07:58:48;5.83;;;2.67;;
6255;SDS011;3161;48.794;9.784;2022-09-06T08:04:03;5.00;;;2.57;;
6255;SDS011;3161;48.794;9.784;2022-09-06T08:06:38;2.80;;;2.20;;
6255;SDS011;3161;48.794;9.784;2022-09-06T08:09:12;2.40;;;2.20;;
6255;SDS011;3161;48.794;9.784;2022-09-06T08:11:40;3.23;;;1.87;;
6255;SDS011;3161;48.794;9.784;2022-09-06T08:14:07;2.85;;;2.25;;
6255;SDS011;3161;48.794;9.784;2022-09-06T08:16:36;4.93;;;2.57;;
6255;SDS011;3161;48.794;9.784;2022-09-06T08:19:04;6.85;;;2.20;;
6255;SDS011;3161;48.794;9.784;2022-09-06T08:21:33;2.42;;;2.20;;
6255;SDS011;3161;48.794;9.784;2022-09-06T08:24:02;3.57;;;2.13;;
6255;SDS011;3161;48.794;9.784;2022-09-06T08:26:32;7.53;;;2.42;;
6255;SDS011;3161;48.794;9.784;2022-09-06T08:29:04;2.80;;;2.42;;
6255;SDS011;3161;48.794;9.784;2022-09-06T08:31:34;5.58;;;2.33;;
6255;SDS011;3161;48.794;9.784;2022-09-06T08:34:03;7.40;;;2.80;;
6255;SDS011;3161;48.794;9.784;2022-09-06T08:36:31;13.68;;;2.85;;
6255;SDS011;3161;48.794;9.784;2022-09-06T08:39:00;7.08;;;2.50;;
6255;SDS011;3161;48.794;9.784;2022-09-06T08:41:32;6.75;;;2.70;;
6255;SDS011;3161;48.794;9.784;2022-09-06T08:44:21;5.37;;;2.33;;
6255;SDS011;3161;48.794;9.784;2022-09-06T08:47:10;5.37;;;2.95;;
6255;SDS011;3161;48.794;9.784;2022-09-06T08:49:41;7.67;;;2.62;;
6255;SDS011;3161;48.794;9.784;2022-09-06T08:52:22;6.45;;;2.85;;
6255;SDS011;3161;48.794;9.784;2022-09-06T09:00:32;7.83;;;2.80;;
6255;SDS011;3161;48.794;9.784;2022-09-06T09:03:13;5.12;;;2.60;;
6255;SDS011;3161;48.794;9.784;2022-09-06T09:05:45;6.12;;;2.83;;
6255;SDS011;3161;48.794;9.784;2022-09-06T09:08:19;4.87;;;2.30;;
6255;SDS011;3161;48.794;9.784;2022-09-06T09:11:08;6.10;;;2.08;;
6255;SDS011;3161;48.794;9.784;2022-09-06T09:16:25;8.83;;;2.58;;
6255;SDS011;3161;48.794;9.784;2022-09-06T09:18:58;4.33;;;2.87;;
6255;SDS011;3161;48.794;9.784;2022-09-06T09:21:24;8.15;;;2.65;;
6255;SDS011;3161;48.794;9.784;2022-09-06T09:23:53;11.93;;;2.50;;
6255;SDS011;3161;48.794;9.784;2022-09-06T09:26:24;6.12;;;1.90;;
6255;SDS011;3161;48.794;9.784;2022-09-06T09:29:04;6.75;;;2.05;;
6255;SDS011;3161;48.794;9.784;2022-09-06T09:31:37;2.92;;;2.20;;
6255;SDS011;3161;48.794;9.784;2022-09-06T09:34:10;3.27;;;2.20;;
6255;SDS011;3161;48.794;9.784;2022-09-06T09:36:39;6.05;;;2.72;;
6255;SDS011;3161;48.794;9.784;2022-09-06T09:39:08;4.35;;;1.77;;
6255;SDS011;3161;48.794;9.784;2022-09-06T09:41:38;6.97;;;2.33;;
6255;SDS011;3161;48.794;9.784;2022-09-06T09:44:27;8.98;;;2.40;;
6255;SDS011;3161;48.794;9.784;2022-09-06T09:46:44;6.42;;;2.05;;
6255;SDS011;3161;48.794;9.784;2022-09-06T09:52:05;4.83;;;2.30;;
6255;SDS011;3161;48.794;9.784;2022-09-06T09:54:38;6.58;;;2.60;;
6255;SDS011;3161;48.794;9.784;2022-09-06T09:57:10;5.60;;;2.20;;
6255;SDS011;3161;48.794;9.784;2022-09-06T09:59:45;5.03;;;2.20;;
6255;SDS011;3161;48.794;9.784;2022-09-06T10:02:29;5.33;;;2.08;;
6255;SDS011;3161;48.794;9.784;2022-09-06T10:07:55;5.92;;;2.05;;
6255;SDS011;3161;48.794;9.784;2022-09-06T10:10:24;9.93;;;2.42;;
6255;SDS011;3161;48.794;9.784;2022-09-06T10:15:57;7.47;;;2.58;;
6255;SDS011;3161;48.794;9.784;2022-09-06T10:20:59;5.75;;;2.15;;
6255;SDS011;3161;48.794;9.784;2022-09-06T10:23:35;6.35;;;2.58;;
6255;SDS011;3161;48.794;9.784;2022-09-06T10:26:15;7.47;;;1.87;;
6255;SDS011;3161;48.794;9.784;2022-09-06T10:28:40;12.82;;;2.35;;
6255;SDS011;3161;48.794;9.784;2022-09-06T10:31:21;5.97;;;2.25;;
6255;SDS011;3161;48.794;9.784;2022-09-06T10:36:34;7.70;;;2.90;;
6255;SDS011;3161;48.794;9.784;2022-09-06T10:41:56;4.65;;;2.58;;
6255;SDS011;3161;48.794;9.784;2022-09-06T10:44:36;8.68;;;2.42;;
6255;SDS011;3161;48.794;9.784;2022-09-06T10:47:14;9.38;;;2.65;;
6255;SDS011;3161;48.794;9.784;2022-09-06T10:49:44;7.80;;;2.30;;
6255;SDS011;3161;48.794;9.784;2022-09-06T10:52:27;6.45;;;2.20;;
6255;SDS011;3161;48.794;9.784;2022-09-06T10:54:56;6.20;;;2.35;;
6255;SDS011;3161;48.794;9.784;2022-09-06T10:57:33;8.50;;;2.67;;
6255;SDS011;3161;48.794;9.784;2022-09-06T11:00:02;7.15;;;2.27;;
6255;SDS011;3161;48.794;9.784;2022-09-06T11:05:17;6.95;;;2.47;;
6255;SDS011;3161;48.794;9.784;2022-09-06T11:07:51;7.22;;;2.17;;
6255;SDS011;3161;48.794;9.784;2022-09-06T11:10:21;9.28;;;2.85;;
6255;SDS011;3161;48.794;9.784;2022-09-06T11:13:02;16.40;;;2.45;;
6255;SDS011;3161;48.794;9.784;2022-09-06T11:15:48;15.32;;;2.60;;
6255;SDS011;3161;48.794;9.784;2022-09-06T11:18:19;18.65;;;3.05;;
6255;SDS011;3161;48.794;9.784;2022-09-06T11:21:09;10.53;;;2.50;;
6255;SDS011;3161;48.794;9.784;2022-09-06T11:23:39;10.15;;;2.45;;
6255;SDS011;3161;48.794;9.784;2022-09-06T11:28:57;14.38;;;2.50;;
6255;SDS011;3161;48.794;9.784;2022-09-06T11:31:49;8.95;;;2.45;;
6255;SDS011;3161;48.794;9.784;2022-09-06T11:34:23;12.88;;;2.40;;
6255;SDS011;3161;48.794;9.784;2022-09-06T11:37:02;5.92;;;2.05;;
6255;SDS011;3161;48.794;9.784;2022-09-06T11:39:43;15.98;;;2.10;;
6255;SDS011;3161;48.794;9.784;2022-09-06T11:42:09;9.73;;;2.72;;
6255;SDS011;3161;48.794;9.784;2022-09-06T11:47:34;7.40;;;2.50;;
6255;SDS011;3161;48.794;9.784;2022-09-06T11:55:38;11.68;;;2.25;;
6255;SDS011;3161;48.794;9.784;2022-09-06T12:00:45;14.85;;;2.87;;
6255;SDS011;3161;48.794;9.784;2022-09-06T12:06:21;8.05;;;2.25;;
6255;SDS011;3161;48.794;9.784;2022-09-06T12:08:50;6.35;;;2.02;;
6255;SDS011;3161;48.794;9.784;2022-09-06T12:11:35;6.70;;;2.02;;
6255;SDS011;3161;48.794;9.784;2022-09-06T12:19:48;16.52;;;2.52;;
6255;SDS011;3161;48.794;9.784;2022-09-06T12:24:58;7.78;;;2.27;;
6255;SDS011;3161;48.794;9.784;2022-09-06T12:27:54;11.00;;;3.00;;
6255;SDS011;3161;48.794;9.784;2022-09-06T12:33:14;10.70;;;2.52;;
6255;SDS011;3161;48.794;9.784;2022-09-06T12:35:46;12.82;;;3.10;;
6255;SDS011;3161;48.794;9.784;2022-09-06T12:38:14;8.30;;;2.25;;
6255;SDS011;3161;48.794;9.784;2022-09-06T12:40:45;8.28;;;1.90;;
6255;SDS011;3161;48.794;9.784;2022-09-06T12:43:17;14.98;;;3.00;;
6255;SDS011;3161;48.794;9.784;2022-09-06T12:45:46;8.60;;;2.65;;
6255;SDS011;3161;48.794;9.784;2022-09-06T12:48:27;6.78;;;2.00;;
6255;SDS011;3161;48.794;9.784;2022-09-06T12:51:08;7.30;;;2.20;;
6255;SDS011;3161;48.794;9.784;2022-09-06T12:53:49;9.50;;;2.83;;
6255;SDS011;3161;48.794;9.784;2022-09-06T12:56:18;5.37;;;2.08;;
6255;SDS011;3161;48.794;9.784;2022-09-06T12:58:46;11.22;;;2.42;;
6255;SDS011;3161;48.794;9.784;2022-09-06T13:06:32;7.80;;;3.02;;
6255;SDS011;3161;48.794;9.784;2022-09-06T13:09:02;6.37;;;2.12;;
6255;SDS011;3161;48.794;9.784;2022-09-06T13:11:32;6.37;;;1.87;;
6255;SDS011;3161;48.794;9.784;2022-09-06T13:14:08;5.12;;;1.57;;
6255;SDS011;3161;48.794;9.784;2022-09-06T13:16:48;4.78;;;1.87;;
6255;SDS011;3161;48.794;9.784;2022-09-06T13:19:19;6.03;;;2.08;;
6255;SDS011;3161;48.794;9.784;2022-09-06T13:21:56;6.75;;;2.10;;
6255;SDS011;3161;48.794;9.784;2022-09-06T13:24:26;7.87;;;2.40;;
6255;SDS011;3161;48.794;9.784;2022-09-06T13:30:09;8.80;;;1.80;;
6255;SDS011;3161;48.794;9.784;2022-09-06T13:32:35;9.35;;;2.33;;
6255;SDS011;3161;48.794;9.784;2022-09-06T13:35:05;11.25;;;2.37;;
6255;SDS011;3161;48.794;9.784;2022-09-06T13:37:34;9.75;;;2.33;;
6255;SDS011;3161;48.794;9.784;2022-09-06T13:40:49;6.08;;;2.08;;
6255;SDS011;3161;48.794;9.784;2022-09-06T13:42:58;9.30;;;1.80;;
6255;SDS011;3161;48.794;9.784;2022-09-06T13:45:26;14.03;;;1.90;;
6255;SDS011;3161;48.794;9.784;2022-09-06T13:47:54;10.35;;;2.37;;
6255;SDS011;3161;48.794;9.784;2022-09-06T13:50:23;7.87;;;2.02;;
6255;SDS011;3161;48.794;9.784;2022-09-06T13:52:51;6.10;;;1.77;;
6255;SDS011;3161;48.794;9.784;2022-09-06T13:55:19;7.87;;;1.95;;
6255;SDS011;3161;48.794;9.784;2022-09-06T13:57:50;10.95;;;2.50;;
6255;SDS011;3161;48.794;9.784;2022-09-06T14:00:17;13.93;;;1.87;;
6255;SDS011;3161;48.794;9.784;2022-09-06T14:02:45;7.72;;;2.40;;
6255;SDS011;3161;48.794;9.784;2022-09-06T14:05:14;11.50;;;2.50;;
6255;SDS011;3161;48.794;9.784;2022-09-06T14:07:43;6.17;;;1.90;;
6255;SDS011;3161;48.794;9.784;2022-09-06T14:10:10;8.28;;;2.10;;
6255;SDS011;3161;48.794;9.784;2022-09-06T14:12:39;7.50;;;2.02;;
6255;SDS011;3161;48.794;9.784;2022-09-06T14:15:07;7.17;;;2.45;;
6255;SDS011;3161;48.794;9.784;2022-09-06T14:17:35;11.10;;;2.55;;
6255;SDS011;3161;48.794;9.784;2022-09-06T14:20:03;5.25;;;2.02;;
6255;SDS011;3161;48.794;9.784;2022-09-06T14:22:31;8.48;;;2.42;;
6255;SDS011;3161;48.794;9.784;2022-09-06T14:24:59;5.95;;;2.12;;
6255;SDS011;3161;48.794;9.784;2022-09-06T14:27:26;6.33;;;1.80;;
6255;SDS011;3161;48.794;9.784;2022-09-06T14:29:54;7.15;;;1.87;;
6255;SDS011;3161;48.794;9.784;2022-09-06T14:32:21;7.00;;;1.92;;
6255;SDS011;3161;48.794;9.784;2022-09-06T14:34:51;7.55;;;2.05;;
6255;SDS011;3161;48.794;9.784;2022-09-06T14:37:19;8.33;;;1.98;;
6255;SDS011;3161;48.794;9.784;2022-09-06T14:39:47;7.08;;;1.92;;
6255;SDS011;3161;48.794;9.784;2022-09-06T14:42:14;8.28;;;1.92;;
6255;SDS011;3161;48.794;9.784;2022-09-06T14:44:42;5.00;;;1.72;;
6255;SDS011;3161;48.794;9.784;2022-09-06T14:47:10;4.42;;;1.82;;
6255;SDS011;3161;48.794;9.784;2022-09-06T14:49:37;8.40;;;2.50;;
6255;SDS011;3161;48.794;9.784;2022-09-06T14:52:05;8.75;;;1.90;;
6255;SDS011;3161;48.794;9.784;2022-09-06T14:54:32;7.08;;;1.77;;
6255;SDS011;3161;48.794;9.784;2022-09-06T14:57:00;9.05;;;2.15;;
6255;SDS011;3161;48.794;9.784;2022-09-06T14:59:28;7.75;;;1.90;;
6255;SDS011;3161;48.794;9.784;2022-09-06T15:01:55;8.65;;;2.05;;
6255;SDS011;3161;48.794;9.784;2022-09-06T15:04:23;10.85;;;2.47;;
6255;SDS011;3161;48.794;9.784;2022-09-06T15:06:51;9.80;;;2.17;;
6255;SDS011;3161;48.794;9.784;2022-09-06T15:09:19;15.83;;;2.20;;
6255;SDS011;3161;48.794;9.784;2022-09-06T15:11:48;8.68;;;2.10;;
6255;SDS011;3161;48.794;9.784;2022-09-06T15:14:20;5.12;;;1.60;;
6255;SDS011;3161;48.794;9.784;2022-09-06T15:16:49;12.55;;;2.15;;
6255;SDS011;3161;48.794;9.784;2022-09-06T15:19:20;7.37;;;2.22;;
6255;SDS011;3161;48.794;9.784;2022-09-06T15:21:49;9.25;;;2.22;;
6255;SDS011;3161;48.794;9.784;2022-09-06T15:26:57;11.53;;;1.80;;
6255;SDS011;3161;48.794;9.784;2022-09-06T15:29:25;9.38;;;2.02;;
6255;SDS011;3161;48.794;9.784;2022-09-06T15:31:53;6.65;;;1.60;;
6255;SDS011;3161;48.794;9.784;2022-09-06T15:34:22;3.52;;;1.77;;
6255;SDS011;3161;48.794;9.784;2022-09-06T15:36:51;8.58;;;2.10;;
6255;SDS011;3161;48.794;9.784;2022-09-06T15:39:19;6.62;;;1.90;;
6255;SDS011;3161;48.794;9.784;2022-09-06T15:41:48;8.75;;;2.02;;
6255;SDS011;3161;48.794;9.784;2022-09-06T15:44:17;9.58;;;1.80;;
6255;SDS011;3161;48.794;9.784;2022-09-06T15:46:47;9.35;;;1.92;;
6255;SDS011;3161;48.794;9.784;2022-09-06T15:49:24;8.70;;;2.05;;
6255;SDS011;3161;48.794;9.784;2022-09-06T15:51:50;7.12;;;2.27;;
6255;SDS011;3161;48.794;9.784;2022-09-06T15:54:18;9.20;;;2.10;;
6255;SDS011;3161;48.794;9.784;2022-09-06T15:56:50;17.52;;;4.15;;
6255;SDS011;3161;48.794;9.784;2022-09-06T15:59:18;6.00;;;2.90;;
6255;SDS011;3161;48.794;9.784;2022-09-06T16:01:46;9.18;;;2.47;;
6255;SDS011;3161;48.794;9.784;2022-09-06T16:04:13;10.13;;;1.80;;
6255;SDS011;3161;48.794;9.784;2022-09-06T16:06:41;7.97;;;2.80;;
6255;SDS011;3161;48.794;9.784;2022-09-06T16:09:09;11.68;;;3.08;;
6255;SDS011;3161;48.794;9.784;2022-09-06T16:11:39;15.20;;;3.42;;
6255;SDS011;3161;48.794;9.784;2022-09-06T16:14:08;8.53;;;2.40;;
6255;SDS011;3161;48.794;9.784;2022-09-06T16:16:38;7.33;;;2.52;;
6255;SDS011;3161;48.794;9.784;2022-09-06T16:19:08;9.13;;;2.90;;
6255;SDS011;3161;48.794;9.784;2022-09-06T16:21:38;12.20;;;2.37;;
6255;SDS011;3161;48.794;9.784;2022-09-06T16:24:08;9.65;;;2.25;;
6255;SDS011;3161;48.794;9.784;2022-09-06T16:26:38;5.47;;;1.80;;
6255;SDS011;3161;48.794;9.784;2022-09-06T16:29:09;11.43;;;2.70;;
6255;SDS011;3161;48.794;9.784;2022-09-06T16:31:37;7.20;;;1.65;;
6255;SDS011;3161;48.794;9.784;2022-09-06T16:34:05;5.75;;;2.10;;
6255;SDS011;3161;48.794;9.784;2022-09-06T16:36:34;9.78;;;1.92;;
6255;SDS011;3161;48.794;9.784;2022-09-06T16:39:02;10.08;;;2.37;;
6255;SDS011;3161;48.794;9.784;2022-09-06T16:41:40;8.40;;;2.22;;
6255;SDS011;3161;48.794;9.784;2022-09-06T16:44:10;6.20;;;1.90;;
6255;SDS011;3161;48.794;9.784;2022-09-06T16:46:46;6.40;;;2.45;;
6255;SDS011;3161;48.794;9.784;2022-09-06T16:49:11;14.75;;;3.00;;
6255;SDS011;3161;48.794;9.784;2022-09-06T16:51:41;4.58;;;2.10;;
6255;SDS011;3161;48.794;9.784;2022-09-06T16:54:08;5.12;;;1.72;;
6255;SDS011;3161;48.794;9.784;2022-09-06T16:56:36;7.12;;;2.77;;
6255;SDS011;3161;48.794;9.784;2022-09-06T16:59:05;9.25;;;2.33;;
6255;SDS011;3161;48.794;9.784;2022-09-06T17:01:35;4.45;;;2.15;;
6255;SDS011;3161;48.794;9.784;2022-09-06T17:04:05;8.55;;;2.30;;
6255;SDS011;3161;48.794;9.784;2022-09-06T17:06:33;6.03;;;2.10;;
6255;SDS011;3161;48.794;9.784;2022-09-06T17:09:02;4.87;;;1.98;;
6255;SDS011;3161;48.794;9.784;2022-09-06T17:11:30;9.23;;;2.27;;
6255;SDS011;3161;48.794;9.784;2022-09-06T17:13:58;5.40;;;1.98;;
6255;SDS011;3161;48.794;9.784;2022-09-06T17:16:25;8.23;;;2.00;;